Terminal Aerodrome Forecast
Issued by NWS

Home | Current Version | Previous Version | Text Only | Print | Product List | Glossary On
Versions: 1 2 3 4 5 6 7 8 9 10 11 12 13 14 15 16 17 18 19 20 21 22 23 24 25
171
FTUS43 KDLH 222222 AAC
TAFHIB
TAF AMD
KHIB 222222Z 2222/2318 30011G20KT 5SM -RA BR VCSH FEW016 BKN040
     FM230000 32006KT P6SM VCSH BKN035
     FM230600 00000KT 1 1/2SM BR VCSH OVC008
     FM231300 01006KT P6SM VCSH OVC003=

USA.gov is the U.S. government's official web portal to all federal, state and local government web resources and services.